createdAt,value
2019-04-26T00:03:33.448Z,3.50
2019-04-26T00:07:40.673Z,3.60
2019-04-26T00:11:51.573Z,4.73
2019-04-26T00:15:59.477Z,3.40
2019-04-26T00:20:07.846Z,4.13
2019-04-26T00:24:15.180Z,3.30
2019-04-26T00:28:21.523Z,4.53
2019-04-26T00:32:27.862Z,3.90
2019-04-26T00:36:34.258Z,4.00
2019-04-26T00:40:42.046Z,4.10
2019-04-26T00:44:48.641Z,4.33
2019-04-26T00:48:56.884Z,4.20
2019-04-26T00:53:03.848Z,3.67
2019-04-26T00:57:14.471Z,4.30
2019-04-26T01:01:22.788Z,4.63
2019-04-26T01:05:30.773Z,3.97
2019-04-26T01:09:37.036Z,4.23
2019-04-26T01:13:43.258Z,3.93
2019-04-26T01:17:49.686Z,4.63
2019-04-26T01:22:02.186Z,4.37
2019-04-26T01:26:14.368Z,4.60
2019-04-26T01:30:21.680Z,3.60
2019-04-26T01:34:28.843Z,5.07
2019-04-26T01:38:35.233Z,4.50
2019-04-26T01:42:52.193Z,4.43
2019-04-26T01:46:58.559Z,4.33
2019-04-26T01:51:05.658Z,4.37
2019-04-26T01:55:12.585Z,4.23
2019-04-26T01:59:20.984Z,4.00
2019-04-26T02:03:30.262Z,4.20
2019-04-26T02:07:40.279Z,4.90
2019-04-26T02:11:46.580Z,4.17
2019-04-26T02:15:52.834Z,4.37
2019-04-26T02:19:59.206Z,3.93
2019-04-26T02:24:10.069Z,4.50
2019-04-26T02:28:16.386Z,4.03
2019-04-26T02:32:23.262Z,4.17
2019-04-26T02:36:47.948Z,5.13
2019-04-26T02:40:38.220Z,4.80
2019-04-26T02:44:49.196Z,4.30
2019-04-26T02:49:22.380Z,3.90
2019-04-26T02:53:44.117Z,4.80
2019-04-26T02:57:53.603Z,5.13
2019-04-26T03:02:03.356Z,4.13
2019-04-26T03:06:10.149Z,4.43
2019-04-26T03:10:16.874Z,4.20
2019-04-26T03:14:25.350Z,4.53
2019-04-26T03:18:43.068Z,5.70
2019-04-26T03:23:11.782Z,4.13
2019-04-26T03:27:21.143Z,4.87
2019-04-26T03:31:56.526Z,5.03
2019-04-26T03:36:07.493Z,4.70
2019-04-26T03:40:54.903Z,5.10
2019-04-26T03:45:19.612Z,4.53
2019-04-26T03:49:31.898Z,5.30
2019-04-26T03:53:42.552Z,4.80
2019-04-26T03:58:05.415Z,4.50
2019-04-26T04:02:28.161Z,4.90
2019-04-26T04:06:52.520Z,4.57
2019-04-26T04:10:53.298Z,5.73
2019-04-26T04:15:20.809Z,5.83
2019-04-26T04:20:02.835Z,5.70
2019-04-26T04:24:12.168Z,5.60
2019-04-26T04:28:52.854Z,6.03
2019-04-26T04:33:04.851Z,5.80
2019-04-26T04:37:14.234Z,5.10
2019-04-26T04:41:31.320Z,5.13
2019-04-26T04:46:04.530Z,5.10
2019-04-26T04:50:17.717Z,5.07
2019-04-26T04:54:38.946Z,4.60
2019-04-26T04:58:54.231Z,6.43
2019-04-26T05:03:11.083Z,5.37
2019-04-26T05:07:38.066Z,5.70
2019-04-26T05:12:02.258Z,4.70
2019-04-26T05:16:33.067Z,5.00
2019-04-26T05:20:55.461Z,4.70
2019-04-26T05:25:42.444Z,4.40
2019-04-26T05:30:20.110Z,5.70
2019-04-26T05:34:48.916Z,4.70
2019-04-26T05:39:01.390Z,4.87
2019-04-26T05:43:32.031Z,4.97
2019-04-26T05:48:14.750Z,3.97
2019-04-26T05:52:34.531Z,4.00
2019-04-26T05:57:11.250Z,4.80
2019-04-26T06:01:42.761Z,4.17
2019-04-26T06:06:19.274Z,3.37
2019-04-26T06:10:32.950Z,3.10
2019-04-26T06:15:00.896Z,2.93
2019-04-26T06:19:17.321Z,3.10
2019-04-26T06:23:32.354Z,3.77
2019-04-26T06:28:06.145Z,2.90
2019-04-26T06:32:18.108Z,3.17
2019-04-26T06:36:28.543Z,2.73
2019-04-26T06:40:53.456Z,2.80
2019-04-26T06:45:11.312Z,2.93
2019-04-26T06:49:31.047Z,2.50
2019-04-26T06:53:46.424Z,2.90
2019-04-26T06:58:13.117Z,3.07
2019-04-26T07:02:38.758Z,2.90
2019-04-26T07:07:03.282Z,3.40
2019-04-26T07:11:43.036Z,3.20
2019-04-26T07:16:27.372Z,3.73
2019-04-26T07:20:38.501Z,3.30
2019-04-26T07:25:25.663Z,3.30
2019-04-26T07:30:02.343Z,3.00
2019-04-26T07:34:23.587Z,3.20
2019-04-26T07:38:50.743Z,3.10
2019-04-26T07:43:19.886Z,2.67
2019-04-26T07:47:42.296Z,3.63
2019-04-26T07:52:08.557Z,3.53
2019-04-26T07:56:26.534Z,3.27
2019-04-26T08:00:45.185Z,2.73
2019-04-26T08:05:04.278Z,2.90
2019-04-26T08:09:24.789Z,2.67
2019-04-26T08:13:24.041Z,2.60
2019-04-26T08:17:51.034Z,3.17
2019-04-26T08:22:15.163Z,2.90
2019-04-26T08:26:11.652Z,2.63
2019-04-26T08:30:19.379Z,2.83
2019-04-26T08:34:33.672Z,2.90
2019-04-26T08:38:39.296Z,3.37
2019-04-26T08:42:53.481Z,3.90
2019-04-26T08:47:21.543Z,2.53
2019-04-26T08:51:25.549Z,3.03
2019-04-26T08:55:34.846Z,3.50
2019-04-26T08:59:51.450Z,2.40
2019-04-26T09:04:19.454Z,2.67
2019-04-26T09:08:28.863Z,3.47
2019-04-26T09:12:38.202Z,3.30
2019-04-26T09:16:50.401Z,3.20
2019-04-26T09:20:52.690Z,2.67
2019-04-26T09:25:06.516Z,3.00
2019-04-26T09:29:31.775Z,2.40
2019-04-26T09:33:46.075Z,2.30
2019-04-26T09:37:52.380Z,3.10
2019-04-26T09:42:09.583Z,2.27
2019-04-26T09:46:15.904Z,2.43
2019-04-26T09:50:23.861Z,2.50
2019-04-26T09:54:30.295Z,3.20
2019-04-26T09:58:36.531Z,3.60
2019-04-26T10:02:43.131Z,3.30
2019-04-26T10:06:49.527Z,3.30
2019-04-26T10:10:55.786Z,3.40
2019-04-26T10:15:03.773Z,3.33
2019-04-26T10:19:11.199Z,3.53
2019-04-26T10:23:17.470Z,4.13
2019-04-26T10:27:23.754Z,4.03
2019-04-26T10:31:30.656Z,4.13
2019-04-26T10:35:36.956Z,3.83
2019-04-26T10:39:43.183Z,3.30
2019-04-26T10:43:49.443Z,3.60
2019-04-26T10:47:55.706Z,3.70
2019-04-26T10:52:02.030Z,3.80
2019-04-26T10:56:13.155Z,4.63
2019-04-26T11:00:22.734Z,4.30
2019-04-26T11:04:29.066Z,4.47
2019-04-26T11:08:35.542Z,4.10
2019-04-26T11:12:43.458Z,4.07
2019-04-26T11:16:49.752Z,4.00
2019-04-26T11:20:56.310Z,4.13
2019-04-26T11:25:02.634Z,4.20
2019-04-26T11:29:09.558Z,4.43
2019-04-26T11:33:16.230Z,4.30
2019-04-26T11:37:22.495Z,4.80
2019-04-26T11:41:28.734Z,4.30
2019-04-26T11:45:34.998Z,4.40
2019-04-26T11:49:43.021Z,4.87
2019-04-26T11:53:49.465Z,5.00
2019-04-26T11:57:55.725Z,4.23
2019-04-26T12:02:02.358Z,5.00
2019-04-26T12:06:10.751Z,4.90
2019-04-26T12:10:17.347Z,4.63
2019-04-26T12:14:24.241Z,5.00
2019-04-26T12:18:30.639Z,4.43
2019-04-26T12:22:39.389Z,5.40
2019-04-26T12:26:46.368Z,4.60
2019-04-26T12:30:54.121Z,4.40
2019-04-26T12:35:02.674Z,5.47
2019-04-26T12:39:10.889Z,4.83
2019-04-26T12:43:20.030Z,4.40
2019-04-26T12:47:40.138Z,4.73
2019-04-26T12:51:48.794Z,4.87
2019-04-26T12:55:58.242Z,4.80
2019-04-26T13:00:04.558Z,4.47
2019-04-26T13:04:11.186Z,4.40
2019-04-26T13:08:18.151Z,4.50
2019-04-26T13:12:29.825Z,4.23
2019-04-26T13:16:38.494Z,4.63
2019-04-26T13:20:44.751Z,4.83
2019-04-26T13:24:51.019Z,4.63
2019-04-26T13:28:58.784Z,4.80
2019-04-26T13:33:05.114Z,4.73
2019-04-26T13:37:11.383Z,4.77
2019-04-26T13:41:17.631Z,4.77
2019-04-26T13:45:43.754Z,4.90
2019-04-26T13:49:57.697Z,5.33
2019-04-26T13:54:04.795Z,4.67
2019-04-26T13:58:11.035Z,5.43
2019-04-26T14:02:18.218Z,5.20
2019-04-26T14:06:24.546Z,5.00
2019-04-26T14:10:30.802Z,4.87
2019-04-26T14:14:37.091Z,4.90
2019-04-26T14:18:43.898Z,5.30
2019-04-26T14:23:06.606Z,4.83
2019-04-26T14:27:15.047Z,5.67
2019-04-26T14:31:21.572Z,6.40
2019-04-26T14:35:27.826Z,6.57
2019-04-26T14:39:43.292Z,7.03
2019-04-26T14:43:42.636Z,7.60
2019-04-26T14:47:48.909Z,7.83
2019-04-26T14:51:56.160Z,7.97
2019-04-26T14:56:02.584Z,7.90
2019-04-26T15:00:09.850Z,8.67
2019-04-26T15:04:33.136Z,9.90
2019-04-26T15:08:44.386Z,10.97
2019-04-26T15:12:52.703Z,12.50
2019-04-26T15:16:56.251Z,14.10
2019-04-26T15:21:04.025Z,15.93
2019-04-26T15:25:11.945Z,16.03
2019-04-26T15:29:21.330Z,16.13
2019-04-26T15:33:26.602Z,21.40
2019-04-26T15:37:32.865Z,18.50
2019-04-26T15:41:40.784Z,19.83
2019-04-26T15:46:02.253Z,20.07
2019-04-26T15:50:11.054Z,20.53
2019-04-26T15:54:17.794Z,19.13
2019-04-26T15:58:25.344Z,21.27
2019-04-26T16:02:32.090Z,20.90
2019-04-26T16:06:41.918Z,21.13
2019-04-26T16:10:46.352Z,22.83
2019-04-26T16:14:52.618Z,22.33
2019-04-26T16:18:58.886Z,20.90
2019-04-26T16:23:07.263Z,19.83
2019-04-26T16:27:13.924Z,20.10
2019-04-26T16:31:42.215Z,19.67
2019-04-26T16:35:49.754Z,19.57
2019-04-26T16:39:56.014Z,20.77
2019-04-26T16:44:02.764Z,20.67
2019-04-26T16:48:09.147Z,21.50
2019-04-26T16:52:16.463Z,20.97
2019-04-26T16:56:26.528Z,20.73
2019-04-26T17:00:50.157Z,20.93
2019-04-26T17:05:03.073Z,22.13
2019-04-26T17:09:07.363Z,21.73
2019-04-26T17:13:14.902Z,21.90
2019-04-26T17:17:22.381Z,21.60
2019-04-26T17:21:30.640Z,22.13
2019-04-26T17:25:38.901Z,21.63
2019-04-26T17:29:45.158Z,23.50
2019-04-26T17:33:51.433Z,22.70
2019-04-26T17:38:02.050Z,22.63
2019-04-26T17:42:05.556Z,22.07
2019-04-26T17:46:14.645Z,116.27
2019-04-26T17:50:20.541Z,51.53
2019-04-26T17:54:45.610Z,26.17
2019-04-26T17:58:49.047Z,35.07
2019-04-26T18:02:47.884Z,36.00
2019-04-26T18:06:57.805Z,28.70
2019-04-26T18:10:58.814Z,27.40
2019-04-26T18:15:11.554Z,29.00
2019-04-26T18:19:16.477Z,29.37
2019-04-26T18:23:24.301Z,31.33
2019-04-26T18:27:35.679Z,26.27
2019-04-26T18:31:38.512Z,29.53
2019-04-26T18:35:48.849Z,28.97
2019-04-26T18:39:53.447Z,28.67
2019-04-26T18:44:00.889Z,24.77
2019-04-26T18:48:08.134Z,23.17
2019-04-26T18:52:14.703Z,20.73
2019-04-26T18:56:21.122Z,15.47
2019-04-26T19:00:34.588Z,12.00
2019-04-26T19:04:47.588Z,10.97
2019-04-26T19:08:50.864Z,10.90
2019-04-26T19:13:00.138Z,10.83
2019-04-26T19:17:14.732Z,11.07
2019-04-26T19:21:22.838Z,9.40
2019-04-26T19:25:33.306Z,11.23
2019-04-26T19:29:37.907Z,10.13
2019-04-26T19:33:47.701Z,10.70
2019-04-26T19:37:53.017Z,10.33
2019-04-26T19:41:59.338Z,9.03
2019-04-26T19:46:25.226Z,8.50
2019-04-26T19:50:33.248Z,5.83
2019-04-26T19:54:57.276Z,6.20
2019-04-26T19:59:03.595Z,6.13
2019-04-26T20:03:13.399Z,6.50
2019-04-26T20:07:18.151Z,6.37
2019-04-26T20:11:24.406Z,6.83
2019-04-26T20:15:31.829Z,7.67
2019-04-26T20:19:38.281Z,6.80
2019-04-26T20:23:47.354Z,7.93
2019-04-26T20:27:53.751Z,7.53
2019-04-26T20:32:12.569Z,7.50
2019-04-26T20:36:18.737Z,7.93
2019-04-26T20:40:26.141Z,7.77
2019-04-26T20:44:48.207Z,6.30
2019-04-26T20:48:42.384Z,6.80
2019-04-26T20:52:48.203Z,7.63
2019-04-26T20:56:55.639Z,6.17
2019-04-26T21:01:06.405Z,6.33
2019-04-26T21:05:14.525Z,6.13
2019-04-26T21:09:19.574Z,6.07
2019-04-26T21:13:30.512Z,5.60
2019-04-26T21:17:33.847Z,4.97
2019-04-26T21:21:41.979Z,5.03
2019-04-26T21:25:49.660Z,4.60
2019-04-26T21:30:04.016Z,5.20
2019-04-26T21:34:15.235Z,5.33
2019-04-26T21:38:39.986Z,6.63
2019-04-26T21:42:47.902Z,5.97
2019-04-26T21:46:58.692Z,6.33
2019-04-26T21:51:03.125Z,5.80
2019-04-26T21:55:09.605Z,6.67
2019-04-26T21:59:15.846Z,7.33
2019-04-26T22:03:22.267Z,6.40
2019-04-26T22:07:28.495Z,7.13
2019-04-26T22:11:35.118Z,7.07
2019-04-26T22:15:44.046Z,7.83
2019-04-26T22:19:54.691Z,7.73
2019-04-26T22:24:05.971Z,7.60
2019-04-26T22:28:13.071Z,6.97
2019-04-26T22:32:19.368Z,7.63
2019-04-26T22:36:27.457Z,6.80
2019-04-26T22:40:33.722Z,6.80
2019-04-26T22:44:58.414Z,7.83
2019-04-26T22:49:05.928Z,7.27
2019-04-26T22:53:12.495Z,6.97
2019-04-26T22:57:18.744Z,6.90
2019-04-26T23:01:25.144Z,6.90
2019-04-26T23:05:37.745Z,7.37
2019-04-26T23:09:40.103Z,6.73
2019-04-26T23:13:50.729Z,7.00
2019-04-26T23:17:58.597Z,6.97
2019-04-26T23:22:05.320Z,6.20
2019-04-26T23:26:12.902Z,6.70
2019-04-26T23:30:19.472Z,7.97
2019-04-26T23:34:25.734Z,7.27
2019-04-26T23:38:34.617Z,7.10
2019-04-26T23:42:39.871Z,7.37
2019-04-26T23:46:46.115Z,7.83
2019-04-26T23:50:53.832Z,8.97
2019-04-26T23:55:00.221Z,9.13
2019-04-26T23:59:06.451Z,9.63
